Time;durP1;ratioP1;P1;durP2;ratioP2;P2;SDS_P1;SDS_P2;PMS_P1;PMS_P2;Temp;Humidity;BMP_temperature;BMP_pressure;BME280_temperature;BME280_humidity;BME280_pressure;Samples;Min_cycle;Max_cycle;Signal;HPM_P1;HPM_P2
2022/07/20 00:00:06;;;;;;;4.70;1.58;;;;;;;25.21;35.31;101307.69;6250228;28;20068;-77
2022/07/20 00:03:09;;;;;;;2.15;1.50;;;;;;;25.16;35.87;101306.47;6250418;28;20045;-77
2022/07/20 00:06:10;;;;;;;1.30;1.10;;;;;;;25.10;35.53;101304.47;6249449;28;20053;-77
2022/07/20 00:12:33;;;;;;;1.90;1.30;;;;;;;25.01;35.65;101296.31;6249219;28;20046;-77
2022/07/20 00:15:34;;;;;;;1.92;1.30;;;;;;;24.99;35.85;101301.03;6225139;28;20058;-77
2022/07/20 00:18:36;;;;;;;2.90;1.38;;;;;;;24.95;36.05;101301.53;6225175;28;20402;-77
2022/07/20 00:21:37;;;;;;;2.03;1.23;;;;;;;24.93;35.60;101306.19;6224568;28;20057;-77
2022/07/20 00:24:38;;;;;;;2.20;1.50;;;;;;;24.84;36.57;101297.25;6224837;28;20424;-77
2022/07/20 00:27:41;;;;;;;1.58;1.25;;;;;;;24.80;36.62;101298.59;6224772;28;20533;-76
2022/07/20 00:30:42;;;;;;;1.58;1.17;;;;;;;24.77;36.68;101293.53;6224826;28;20052;-77
2022/07/20 00:33:46;;;;;;;4.10;1.33;;;;;;;24.76;36.49;101292.72;6236655;28;20533;-77
2022/07/20 00:36:48;;;;;;;2.28;1.30;;;;;;;24.75;37.02;101282.97;6259922;28;20507;-77
2022/07/20 00:39:49;;;;;;;2.13;1.38;;;;;;;24.72;36.53;101280.59;6265614;28;20053;-77
2022/07/20 00:42:52;;;;;;;3.33;1.55;;;;;;;24.73;36.37;101284.09;6274113;28;20071;-77
2022/07/20 00:45:53;;;;;;;7.82;1.50;;;;;;;24.70;36.52;101279.03;6259411;28;20056;-76
2022/07/20 00:48:55;;;;;;;2.13;1.50;;;;;;;24.66;36.89;101280.38;6273373;28;20661;-77
2022/07/20 00:51:56;;;;;;;1.25;1.10;;;;;;;24.60;37.02;101281.03;6273178;28;20420;-77
2022/07/20 00:54:57;;;;;;;1.95;1.17;;;;;;;24.55;37.00;101279.66;6273008;28;20045;-76
2022/07/20 00:58:00;;;;;;;2.38;1.20;;;;;;;24.51;37.03;101278.28;6270936;28;20053;-77
2022/07/20 01:01:01;;;;;;;2.80;1.35;;;;;;;24.42;37.75;101276.56;6259401;28;20052;-77
2022/07/20 01:04:03;;;;;;;2.30;1.73;;;;;;;24.36;37.70;101266.41;6238578;28;20050;-77
2022/07/20 01:07:05;;;;;;;3.53;1.58;;;;;;;24.30;37.73;101278.66;6223986;28;20049;-77
2022/07/20 01:10:07;;;;;;;2.13;1.48;;;;;;;24.23;38.29;101274.91;6223578;28;20057;-77
2022/07/20 01:13:11;;;;;;;1.67;1.25;;;;;;;24.17;38.17;101277.38;6223394;28;20639;-77
2022/07/20 01:16:12;;;;;;;3.58;1.58;;;;;;;24.13;38.05;101268.78;6223223;28;20061;-77
2022/07/20 01:19:13;;;;;;;2.25;1.35;;;;;;;24.03;38.54;101274.28;6223537;28;20049;-77
2022/07/20 01:22:16;;;;;;;2.92;1.80;;;;;;;23.96;39.32;101265.13;6223362;28;20054;-77
2022/07/20 01:25:18;;;;;;;2.67;1.52;;;;;;;23.90;39.37;101264.94;6249770;28;20485;-77
2022/07/20 01:28:19;;;;;;;2.05;1.30;;;;;;;23.85;39.19;101265.41;6264095;28;20424;-77
2022/07/20 01:31:20;;;;;;;3.47;1.50;;;;;;;23.79;39.52;101268.69;6261001;28;20053;-77
2022/07/20 01:34:22;;;;;;;2.55;1.45;;;;;;;23.71;39.39;101265.94;6258273;28;20041;-78
2022/07/20 01:37:24;;;;;;;1.92;1.60;;;;;;;23.64;39.89;101256.78;6263825;28;20497;-77
2022/07/20 01:40:26;;;;;;;2.67;1.55;;;;;;;23.57;40.02;101259.22;6272180;28;20049;-77
2022/07/20 01:43:27;;;;;;;3.47;1.55;;;;;;;23.52;40.09;101254.34;6271914;28;20511;-77
2022/07/20 01:46:28;;;;;;;2.40;1.60;;;;;;;23.48;40.59;101257.47;6271521;28;20246;-77
2022/07/20 01:49:30;;;;;;;2.05;1.35;;;;;;;23.43;40.84;101255.25;6271854;28;20519;-77
2022/07/20 01:52:33;;;;;;;5.95;1.38;;;;;;;23.39;40.68;101251.22;6271920;28;20062;-77
2022/07/20 01:55:35;;;;;;;1.60;1.27;;;;;;;23.32;41.05;101252.81;6271140;28;20045;-76
2022/07/20 01:58:36;;;;;;;3.45;1.70;;;;;;;23.28;41.13;101252.25;6246195;28;20049;-77
2022/07/20 02:01:37;;;;;;;7.07;1.40;;;;;;;23.22;41.33;101255.56;6246620;28;20057;-76
2022/07/20 02:04:39;;;;;;;1.95;1.05;;;;;;;23.18;41.75;101248.81;6233846;28;20069;-77
2022/07/20 02:07:44;;;;;;;2.42;1.02;;;;;;;23.13;41.91;101255.63;6224830;28;20408;-77
2022/07/20 02:10:46;;;;;;;1.92;1.27;;;;;;;23.07;41.95;101248.16;6246910;28;20053;-77
2022/07/20 02:13:48;;;;;;;2.65;1.35;;;;;;;23.01;42.38;101246.94;6246025;28;20091;-77
2022/07/20 02:16:49;;;;;;;1.95;1.40;;;;;;;22.95;42.91;101244.88;6238233;28;20046;-78
2022/07/20 02:19:50;;;;;;;2.83;1.30;;;;;;;22.91;42.44;101243.47;6229291;28;20045;-77
2022/07/20 02:22:53;;;;;;;2.97;1.60;;;;;;;22.87;42.14;101242.91;6237831;28;20041;-77
2022/07/20 02:25:54;;;;;;;5.38;2.03;;;;;;;22.84;43.12;101242.34;6224716;28;20042;-77
2022/07/20 02:28:56;;;;;;;4.60;1.63;;;;;;;22.78;43.31;101241.13;6228316;28;20054;-77
2022/07/20 02:31:57;;;;;;;2.53;1.25;;;;;;;22.75;43.43;101236.03;6232673;28;20058;-76
2022/07/20 02:34:58;;;;;;;4.10;1.48;;;;;;;22.71;43.20;101223.94;6231386;28;20060;-76
2022/07/20 02:38:01;;;;;;;3.30;1.45;;;;;;;22.67;43.52;101231.44;6224026;28;20061;-76
2022/07/20 02:41:02;;;;;;;1.77;1.50;;;;;;;22.64;43.16;101231.75;6224738;28;20050;-76
2022/07/20 02:44:04;;;;;;;2.13;1.50;;;;;;;22.59;43.26;101225.97;6240373;28;20065;-77
2022/07/20 02:47:05;;;;;;;5.50;2.70;;;;;;;22.56;43.77;101226.28;6246325;28;20056;-76
2022/07/20 02:50:08;;;;;;;2.95;1.98;;;;;;;22.54;43.54;101230.94;6236944;28;20045;-77
2022/07/20 02:53:12;;;;;;;2.80;1.80;;;;;;;22.52;43.15;101228.38;6231736;28;20045;-77
2022/07/20 02:56:14;;;;;;;2.65;1.58;;;;;;;22.52;43.07;101227.56;6234653;28;20042;-76
2022/07/20 02:59:15;;;;;;;3.75;1.67;;;;;;;22.49;43.13;101231.38;6235520;28;20066;-76
2022/07/20 03:02:16;;;;;;;3.03;1.40;;;;;;;22.46;43.29;101230.84;6241305;28;20049;-76
2022/07/20 03:05:18;;;;;;;2.83;2.05;;;;;;;22.41;43.29;101227.75;6229421;28;20050;-76
2022/07/20 03:08:21;;;;;;;1.50;1.30;;;;;;;22.36;43.99;101224.69;6225743;28;20054;-76
2022/07/20 03:11:23;;;;;;;2.58;1.48;;;;;;;22.36;44.28;101222.84;6225934;28;20517;-76
2022/07/20 03:14:24;;;;;;;1.55;1.42;;;;;;;22.36;43.62;101232.72;6225452;28;20418;-77
2022/07/20 03:17:25;;;;;;;5.07;1.27;;;;;;;22.38;43.19;101244.94;6225924;28;20050;-77
2022/07/20 03:20:29;;;;;;;1.63;1.27;;;;;;;22.38;43.07;101228.88;6225750;28;20409;-77
2022/07/20 03:23:31;;;;;;;2.72;1.65;;;;;;;22.43;43.03;101240.00;6225803;28;20064;-77
2022/07/20 03:26:33;;;;;;;6.30;2.00;;;;;;;22.43;42.99;101245.34;6238369;28;20124;-77
2022/07/20 03:29:34;;;;;;;7.78;1.38;;;;;;;22.38;43.46;101252.13;6249883;28;20048;-76
2022/07/20 03:32:36;;;;;;;2.38;1.75;;;;;;;22.32;43.67;101250.06;6243764;28;20049;-76
2022/07/20 03:35:37;;;;;;;3.45;2.20;;;;;;;22.25;44.38;101250.63;6225301;28;20049;-76
2022/07/20 03:38:40;;;;;;;6.70;3.50;;;;;;;22.20;44.23;101252.88;6225094;28;20061;-76
2022/07/20 03:41:41;;;;;;;2.63;2.05;;;;;;;22.16;44.80;101254.16;6225013;28;20049;-76
2022/07/20 03:44:42;;;;;;;4.38;1.80;;;;;;;22.10;45.11;101259.25;6224969;28;20042;-76
2022/07/20 03:47:44;;;;;;;2.95;1.50;;;;;;;22.06;45.01;101261.34;6225000;28;20046;-76
2022/07/20 03:50:46;;;;;;;2.80;1.70;;;;;;;22.05;45.45;101259.66;6224820;28;20426;-76
2022/07/20 03:53:48;;;;;;;5.07;1.52;;;;;;;22.04;45.53;101256.16;6224721;28;20188;-76
2022/07/20 03:56:50;;;;;;;3.65;1.83;;;;;;;21.99;45.30;101257.56;6224788;28;20057;-76
2022/07/20 03:59:51;;;;;;;1.70;1.40;;;;;;;21.96;45.89;101258.69;6224730;28;20050;-77
2022/07/20 04:02:52;;;;;;;2.40;1.52;;;;;;;21.93;45.76;101260.81;6225947;28;20057;-76
2022/07/20 04:05:54;;;;;;;2.45;1.30;;;;;;;21.92;46.24;101265.31;6224498;28;20057;-76
2022/07/20 04:08:56;;;;;;;1.90;1.52;;;;;;;21.85;46.59;101269.56;6224145;28;20058;-76
2022/07/20 04:11:58;;;;;;;3.88;1.77;;;;;;;21.81;47.62;101267.31;6224079;28;20054;-76
2022/07/20 04:14:59;;;;;;;2.70;1.50;;;;;;;21.76;47.97;101268.59;6224113;28;20042;-76
2022/07/20 04:18:00;;;;;;;2.55;1.73;;;;;;;21.73;48.54;101270.69;6224183;28;20065;-76
2022/07/20 04:21:02;;;;;;;2.70;1.50;;;;;;;21.69;48.96;101270.13;6224100;28;20049;-76
2022/07/20 04:24:05;;;;;;;2.75;1.60;;;;;;;21.64;49.26;101260.84;6224124;28;20065;-77
2022/07/20 04:27:06;;;;;;;4.40;1.70;;;;;;;21.61;49.64;101264.63;6223912;28;20057;-77
2022/07/20 04:30:09;;;;;;;4.13;1.80;;;;;;;21.58;50.65;101264.09;6223852;28;20057;-76
2022/07/20 04:33:10;;;;;;;4.80;1.70;;;;;;;21.53;50.85;101257.31;6224871;28;20132;-77
2022/07/20 04:36:12;;;;;;;2.88;1.80;;;;;;;21.47;50.83;101263.22;6224068;28;20041;-76
2022/07/20 04:39:15;;;;;;;2.17;1.80;;;;;;;21.48;51.41;101274.75;6223604;28;20401;-76
2022/07/20 04:42:17;;;;;;;2.92;1.38;;;;;;;21.46;51.97;101271.38;6223143;28;20265;-76
2022/07/20 04:45:18;;;;;;;1.90;1.30;;;;;;;21.43;52.44;101272.50;6223937;28;20482;-76
2022/07/20 04:48:20;;;;;;;3.20;1.75;;;;;;;21.43;52.44;101279.69;6223313;28;20054;-76
2022/07/20 04:51:22;;;;;;;4.20;1.50;;;;;;;21.46;52.38;101277.56;6223564;28;20065;-76
2022/07/20 04:54:24;;;;;;;2.25;1.50;;;;;;;21.49;52.40;101285.34;6223341;28;20060;-76
2022/07/20 04:57:26;;;;;;;2.38;1.30;;;;;;;21.48;51.90;101280.97;6223386;28;20050;-76
2022/07/20 05:00:27;;;;;;;2.05;1.35;;;;;;;21.53;52.28;101285.91;6224283;28;20048;-76
2022/07/20 05:03:28;;;;;;;2.40;1.45;;;;;;;21.55;52.33;101275.91;6223203;28;20054;-76
2022/07/20 05:06:30;;;;;;;1.70;1.33;;;;;;;21.58;52.42;101272.13;6222933;28;20050;-76
2022/07/20 05:09:32;;;;;;;3.00;1.67;;;;;;;21.61;52.65;101285.19;6223129;28;20073;-76
2022/07/20 05:12:34;;;;;;;3.58;1.85;;;;;;;21.65;52.83;101268.72;6223194;28;20050;-76
2022/07/20 05:15:35;;;;;;;8.23;1.55;;;;;;;21.69;52.42;101275.47;6222634;28;20053;-76
2022/07/20 05:18:37;;;;;;;2.53;1.50;;;;;;;21.74;51.93;101270.53;6222416;28;20057;-76
2022/07/20 05:21:38;;;;;;;2.45;1.55;;;;;;;21.80;51.74;101271.81;6222712;28;20520;-76
2022/07/20 05:24:41;;;;;;;1.90;1.55;;;;;;;21.86;51.90;101273.94;6228527;28;20045;-76
2022/07/20 05:27:42;;;;;;;2.92;1.95;;;;;;;21.92;51.50;101272.50;6239852;28;20049;-76
2022/07/20 05:30:44;;;;;;;1.70;1.40;;;;;;;21.96;51.57;101269.41;6237863;28;20045;-76
2022/07/20 05:33:45;;;;;;;2.70;1.80;;;;;;;22.03;51.41;101262.50;6243418;28;20053;-76
2022/07/20 05:36:46;;;;;;;4.25;1.60;;;;;;;22.11;51.40;101271.63;6246720;28;20049;-76
2022/07/20 05:39:49;;;;;;;3.35;1.60;;;;;;;22.16;51.66;101264.03;6246355;28;20048;-76
2022/07/20 05:42:51;;;;;;;4.15;1.38;;;;;;;22.22;51.75;101271.50;6247931;28;20056;-76
2022/07/20 05:45:52;;;;;;;3.25;1.50;;;;;;;22.29;51.59;101259.22;6246759;28;20413;-77
2022/07/20 05:48:53;;;;;;;1.85;1.33;;;;;;;22.40;51.71;101258.22;6248997;28;20052;-78
2022/07/20 05:51:55;;;;;;;3.58;1.45;;;;;;;22.49;52.53;101273.41;6242860;28;20470;-73
2022/07/20 05:54:57;;;;;;;3.67;1.80;;;;;;;22.58;52.07;101266.31;6245980;28;20049;-73
2022/07/20 05:57:59;;;;;;;2.17;1.50;;;;;;;22.67;52.07;101266.28;6246007;28;20053;-73
2022/07/20 06:01:00;;;;;;;3.22;1.38;;;;;;;22.78;51.33;101268.75;6244906;28;20115;-73
2022/07/20 06:04:01;;;;;;;1.75;1.25;;;;;;;22.88;51.02;101268.69;6246325;28;20049;-73
2022/07/20 06:07:03;;;;;;;1.58;1.15;;;;;;;22.96;50.70;101276.88;6246189;28;20588;-73
2022/07/20 06:10:07;;;;;;;2.67;1.67;;;;;;;23.07;49.45;101266.94;6240162;28;20053;-72
2022/07/20 06:13:08;;;;;;;3.45;1.50;;;;;;;23.16;49.39;101269.56;6245456;28;20052;-72
2022/07/20 06:16:09;;;;;;;2.50;1.27;;;;;;;23.32;47.91;101279.63;6245875;28;20049;-72
2022/07/20 06:19:11;;;;;;;3.33;1.40;;;;;;;23.44;47.49;101275.75;6246066;28;20049;-72
2022/07/20 06:22:12;;;;;;;3.78;1.80;;;;;;;23.57;46.45;101274.50;6245923;28;20052;-72
2022/07/20 06:25:17;;;;;;;1.75;1.13;;;;;;;23.75;45.71;101273.53;6245791;28;20049;-73
2022/07/20 06:28:18;;;;;;;3.13;1.60;;;;;;;23.94;44.63;101275.22;6243682;28;20421;-79
2022/07/20 06:31:19;;;;;;;2.13;1.50;;;;;;;24.12;44.00;101279.66;6250981;28;20049;-79
2022/07/20 06:34:21;;;;;;;1.75;1.20;;;;;;;24.24;43.74;101275.75;6258367;28;20437;-79
2022/07/20 06:37:22;;;;;;;3.38;1.67;;;;;;;24.34;43.87;101276.47;6254196;28;20053;-79
2022/07/20 06:40:25;;;;;;;2.40;1.33;;;;;;;24.44;43.76;101269.19;6257091;28;20060;-79
2022/07/20 06:43:26;;;;;;;3.28;2.20;;;;;;;24.53;43.11;101270.09;6255311;28;20048;-79
2022/07/20 06:46:27;;;;;;;4.43;1.40;;;;;;;24.62;43.09;101266.44;6257173;28;20048;-79
2022/07/20 06:49:29;;;;;;;3.35;1.55;;;;;;;24.73;42.80;101276.88;6252984;28;20045;-79
2022/07/20 06:52:31;;;;;;;1.77;1.20;;;;;;;24.89;42.11;101283.31;6258033;28;20046;-78
2022/07/20 06:55:33;;;;;;;2.78;1.35;;;;;;;25.05;41.71;101280.72;6258343;28;20052;-79
2022/07/20 06:58:35;;;;;;;1.80;1.35;;;;;;;25.19;41.50;101276.56;6241850;28;20056;-79
2022/07/20 07:01:36;;;;;;;1.10;1.00;;;;;;;25.33;41.57;101272.41;6232703;28;20053;-78
2022/07/20 07:04:39;;;;;;;3.60;1.38;;;;;;;25.53;40.65;101281.88;6232652;28;20046;-78
2022/07/20 07:07:40;;;;;;;2.05;1.30;;;;;;;25.65;40.54;101280.50;6229829;28;20061;-79
2022/07/20 07:10:43;;;;;;;3.58;1.60;;;;;;;25.85;39.97;101278.38;6228674;28;20057;-79
2022/07/20 07:13:44;;;;;;;2.05;1.55;;;;;;;26.01;40.00;101280.22;6228558;28;20061;-79
2022/07/20 07:16:46;;;;;;;8.93;1.33;;;;;;;26.23;39.12;101284.06;6229627;28;20053;-79
2022/07/20 07:19:47;;;;;;;1.77;1.63;;;;;;;26.33;39.44;101279.31;6231231;28;20050;-79
2022/07/20 07:22:48;;;;;;;21.52;12.27;;;;;;;26.38;39.48;101281.50;6232657;28;20414;-79
2022/07/20 07:25:51;;;;;;;9.27;2.58;;;;;;;26.48;39.76;101266.88;6234351;28;20050;-79
2022/07/20 07:28:52;;;;;;;2.42;1.50;;;;;;;26.60;39.13;101267.31;6229815;28;20045;-79
2022/07/20 07:31:58;;;;;;;3.33;1.65;;;;;;;26.75;38.17;101264.72;6230280;28;20057;-79
2022/07/20 07:34:59;;;;;;;4.82;1.38;;;;;;;26.83;38.55;101261.16;6230508;28;20049;-79
2022/07/20 07:38:01;;;;;;;3.33;1.60;;;;;;;26.99;37.07;101266.47;6230914;28;20057;-79
2022/07/20 07:41:03;;;;;;;2.10;1.38;;;;;;;27.15;37.70;101262.88;6230276;28;20052;-78
2022/07/20 07:44:05;;;;;;;1.85;1.65;;;;;;;27.38;37.15;101262.91;6229862;28;20057;-80
2022/07/20 07:47:06;;;;;;;1.23;1.13;;;;;;;27.52;36.94;101264.81;6230536;28;20050;-79
2022/07/20 07:50:08;;;;;;;3.92;1.27;;;;;;;27.49;37.71;101263.34;6230736;28;20061;-79
2022/07/20 07:53:10;;;;;;;2.40;1.17;;;;;;;27.51;37.55;101258.56;6230335;28;20425;-79
2022/07/20 07:56:13;;;;;;;4.75;1.13;;;;;;;27.59;36.95;101264.94;6232592;28;20065;-78
2022/07/20 07:59:14;;;;;;;4.55;1.70;;;;;;;27.80;36.79;101254.34;6231004;28;20050;-78
2022/07/20 08:02:15;;;;;;;1.83;1.33;;;;;;;27.84;37.77;101255.63;6238227;28;20048;-79
2022/07/20 08:05:17;;;;;;;6.93;1.40;;;;;;;27.83;37.96;101255.81;6247736;28;20045;-79
2022/07/20 08:08:18;;;;;;;1.58;1.27;;;;;;;27.88;37.98;101266.91;6248011;28;20516;-79
2022/07/20 08:11:21;;;;;;;2.55;1.33;;;;;;;28.10;37.31;101267.91;6256191;28;20053;-78
2022/07/20 08:14:22;;;;;;;3.25;1.30;;;;;;;28.22;37.34;101263.72;6255177;28;20628;-78
2022/07/20 08:17:23;;;;;;;3.17;1.40;;;;;;;28.52;35.62;101256.50;6235028;28;20046;-78
2022/07/20 08:20:25;;;;;;;2.10;1.25;;;;;;;28.77;34.64;101259.75;6230896;28;20476;-79
2022/07/20 08:23:26;;;;;;;2.40;1.10;;;;;;;29.04;34.36;101250.94;6232041;28;20500;-79
2022/07/20 08:26:29;;;;;;;2.38;1.42;;;;;;;29.20;33.71;101251.72;6232070;28;20053;-78
2022/07/20 08:29:31;;;;;;;1.67;1.33;;;;;;;29.23;33.83;101246.78;6231458;28;20053;-77
2022/07/20 08:32:32;;;;;;;4.57;1.83;;;;;;;29.27;33.20;101255.38;6229694;28;20053;-78
2022/07/20 08:35:34;;;;;;;3.10;1.45;;;;;;;29.31;33.33;101256.66;6229635;28;20065;-78
2022/07/20 08:38:36;;;;;;;4.30;2.17;;;;;;;29.49;32.25;101250.78;6228039;28;20049;-77
2022/07/20 08:41:40;;;;;;;1.45;1.13;;;;;;;29.53;32.92;101246.66;6239142;28;20076;-78
2022/07/20 08:44:42;;;;;;;2.33;1.13;;;;;;;29.57;32.77;101250.69;6255544;28;20045;-78
2022/07/20 08:47:45;;;;;;;1.88;1.23;;;;;;;29.70;31.66;101241.81;6251582;28;20041;-78
2022/07/20 08:50:48;;;;;;;3.05;1.30;;;;;;;30.02;30.56;101240.41;6255349;28;20041;-78
2022/07/20 08:53:50;;;;;;;1.35;1.05;;;;;;;30.16;30.73;101235.94;6250024;28;20449;-77
2022/07/20 08:56:52;;;;;;;4.20;1.30;;;;;;;30.29;29.79;101245.00;6253884;28;20056;-78
2022/07/20 08:59:54;;;;;;;3.58;1.10;;;;;;;30.53;28.60;101243.69;6255291;28;20081;-79
2022/07/20 09:03:01;;;;;;;6.55;0.90;;;;;;;30.64;28.87;101231.41;6245537;28;20057;-79
2022/07/20 09:06:04;;;;;;;1.42;1.10;;;;;;;30.54;29.72;101236.38;6230790;28;20050;-78
2022/07/20 09:09:07;;;;;;;2.78;1.83;;;;;;;30.56;29.61;101235.13;6231903;28;20053;-78
2022/07/20 09:12:09;;;;;;;1.52;1.13;;;;;;;30.61;29.93;101236.41;6231532;28;20050;-79
2022/07/20 09:15:19;;;;;;;3.05;1.02;;;;;;;30.86;28.42;101236.75;6236051;28;20600;-79
2022/07/20 09:18:22;;;;;;;3.50;1.35;;;;;;;31.19;27.60;101234.97;6256752;28;20049;-79
2022/07/20 09:21:29;;;;;;;1.10;0.95;;;;;;;31.39;27.96;101229.63;6255063;28;20050;-78
2022/07/20 09:24:33;;;;;;;1.73;1.23;;;;;;;31.51;27.86;101237.97;6255858;28;20171;-78
2022/07/20 09:27:36;;;;;;;1.70;1.52;;;;;;;31.62;27.77;101248.25;6248883;28;20051;-73
2022/07/20 09:30:38;;;;;;;1.65;1.30;;;;;;;31.74;26.69;101248.44;6246759;28;20061;-72
2022/07/20 09:33:40;;;;;;;3.55;1.25;;;;;;;31.94;26.73;101243.03;6253016;28;20511;-79
2022/07/20 09:36:43;;;;;;;1.00;0.90;;;;;;;32.01;26.26;101239.25;6254597;28;20045;-79
2022/07/20 09:40:00;;;;;;;1.58;1.10;;;;;;;31.96;26.35;101249.09;6253953;28;20041;-78
2022/07/20 09:43:05;;;;;;;2.00;1.30;;;;;;;31.90;26.59;101248.06;6254688;28;20045;-78
2022/07/20 09:46:15;;;;;;;3.75;1.50;;;;;;;31.87;27.47;101244.91;6254288;28;20068;-79
2022/07/20 09:49:16;;;;;;;1.48;1.08;;;;;;;31.93;26.42;101247.63;6255838;28;20460;-78
2022/07/20 09:52:18;;;;;;;2.15;1.30;;;;;;;32.07;26.55;101253.91;6257425;28;20049;-78
2022/07/20 09:55:19;;;;;;;1.67;1.25;;;;;;;32.20;26.38;101251.13;6238522;28;20057;-78
2022/07/20 09:58:28;;;;;;;5.47;1.40;;;;;;;32.41;26.01;101254.69;6234499;28;20042;-79
2022/07/20 10:01:33;;;;;;;2.63;1.20;;;;;;;32.30;26.97;101248.00;6254803;28;20050;-79
2022/07/20 10:04:35;;;;;;;1.73;1.20;;;;;;;32.35;26.34;101250.91;6257762;28;20049;-78
2022/07/20 10:07:38;;;;;;;2.25;1.10;;;;;;;32.43;26.18;101236.25;6263305;28;20053;-78
2022/07/20 10:10:39;;;;;;;2.00;1.30;;;;;;;32.55;26.22;101237.25;6236222;28;20050;-78
2022/07/20 10:13:43;;;;;;;2.63;1.20;;;;;;;32.67;26.56;101229.28;6238956;28;20046;-77
2022/07/20 10:16:48;;;;;;;2.72;1.30;;;;;;;32.98;24.96;101237.53;6255052;28;20037;-78
2022/07/20 10:19:49;;;;;;;1.88;1.55;;;;;;;32.97;25.39;101233.13;6264480;28;20053;-78
2022/07/20 10:23:24;;;;;;;1.45;1.10;;;;;;;33.04;24.69;101223.03;6256333;28;20050;-79
2022/07/20 10:26:26;;;;;;;1.27;1.17;;;;;;;33.05;25.07;101227.41;6246780;28;20048;-78
2022/07/20 10:29:32;;;;;;;1.77;0.95;;;;;;;33.08;25.68;101234.31;6257415;28;20038;-79
2022/07/20 10:32:33;;;;;;;7.95;4.72;;;;;;;33.07;25.11;101225.31;6256521;28;20060;-78
2022/07/20 10:35:36;;;;;;;3.08;1.58;;;;;;;33.18;24.89;101215.63;6255928;28;20054;-79
2022/07/20 10:38:38;;;;;;;1.10;1.00;;;;;;;33.46;23.82;101214.41;6261892;28;20072;-79
2022/07/20 10:42:06;;;;;;;1.55;1.08;;;;;;;33.68;23.53;101220.28;6262907;28;20049;-79
2022/07/20 10:45:35;;;;;;;1.25;1.15;;;;;;;33.72;23.82;101221.53;6263913;28;20057;-78
2022/07/20 10:48:47;;;;;;;1.08;0.98;;;;;;;33.74;23.95;101213.94;6264566;28;20045;-79
2022/07/20 10:52:24;;;;;;;2.10;1.17;;;;;;;33.88;22.30;101214.66;6260944;28;20118;-78
2022/07/20 10:55:50;;;;;;;2.78;1.48;;;;;;;34.00;20.70;101211.00;6262059;28;20049;-78
2022/07/20 10:58:51;;;;;;;2.95;1.15;;;;;;;34.16;22.55;101217.78;6257555;28;20084;-78
2022/07/20 11:01:54;;;;;;;1.10;1.00;;;;;;;34.29;23.12;101206.72;6262423;28;20070;-78
2022/07/20 11:04:56;;;;;;;1.08;0.90;;;;;;;34.67;21.67;101202.06;6260259;28;20056;-79
2022/07/20 11:08:04;;;;;;;0.88;0.88;;;;;;;34.77;20.88;101202.34;6262502;28;20049;-78
2022/07/20 11:11:07;;;;;;;;;;;;;;;34.88;19.98;101201.53;6253482;28;20041;-77
2022/07/20 11:14:11;;;;;;;2.53;1.27;;;;;;;34.96;20.05;101204.00;6256472;28;19936;-77
2022/07/20 11:17:15;;;;;;;1.20;1.02;;;;;;;34.98;21.60;101198.31;6260457;28;20049;-78
2022/07/20 11:20:17;;;;;;;1.17;1.08;;;;;;;35.13;19.76;101206.91;6256616;28;20056;-78
2022/07/20 11:23:20;;;;;;;0.90;0.90;;;;;;;35.42;19.50;101209.81;6257325;28;20045;-78
2022/07/20 11:26:22;;;;;;;1.88;1.30;;;;;;;35.56;19.77;101197.59;6249927;28;20103;-77
2022/07/20 11:29:24;;;;;;;2.80;1.23;;;;;;;35.84;18.97;101205.13;6246116;28;20046;-78
2022/07/20 11:32:27;;;;;;;1.52;1.20;;;;;;;36.03;18.80;101194.91;6247937;28;20417;-78
2022/07/20 11:35:29;;;;;;;3.13;1.30;;;;;;;36.25;18.53;101195.94;6247257;28;20050;-78
2022/07/20 11:38:36;;;;;;;2.03;1.48;;;;;;;36.60;18.74;101195.03;6244266;28;20044;-78
2022/07/20 11:41:41;;;;;;;1.95;1.50;;;;;;;36.75;18.96;101189.88;6244624;28;20037;-77
2022/07/20 11:44:58;;;;;;;1.45;1.00;;;;;;;37.00;19.64;101185.97;6254341;28;20046;-78
2022/07/20 11:48:03;;;;;;;1.20;1.10;;;;;;;37.14;19.28;101194.69;6256116;28;20124;-78
2022/07/20 11:51:04;;;;;;;1.80;1.50;;;;;;;37.28;18.23;101185.88;6240748;28;20494;-78
2022/07/20 11:54:06;;;;;;;1.77;1.30;;;;;;;37.38;17.61;101182.50;6232678;28;20057;-78
2022/07/20 11:57:08;;;;;;;4.50;1.42;;;;;;;37.44;18.15;101188.94;6239850;28;20045;-78
2022/07/20 12:00:11;;;;;;;1.05;0.95;;;;;;;37.45;17.42;101179.63;6234574;28;20053;-79
2022/07/20 12:03:14;;;;;;;3.05;1.45;;;;;;;37.63;18.00;101171.13;6231440;28;20053;-78
2022/07/20 12:06:16;;;;;;;1.60;1.50;;;;;;;37.43;18.60;101179.88;6233988;28;20528;-77
2022/07/20 12:09:19;;;;;;;2.42;1.27;;;;;;;37.14;18.16;101175.50;6257467;28;20147;-77
2022/07/20 12:12:45;;;;;;;1.98;1.70;;;;;;;37.12;18.26;101167.53;6257469;28;20060;-76
2022/07/20 12:15:55;;;;;;;6.50;1.90;;;;;;;37.41;18.90;101156.50;6257269;28;20049;-76
2022/07/20 12:19:04;;;;;;;6.97;1.70;;;;;;;37.54;18.06;101164.41;6255912;28;20045;-77
2022/07/20 12:22:05;;;;;;;3.97;1.40;;;;;;;37.72;17.44;101163.28;6258634;28;20049;-78
2022/07/20 12:25:10;;;;;;;2.88;1.88;;;;;;;38.08;16.84;101159.97;6259193;28;20058;-77
2022/07/20 12:28:11;;;;;;;3.35;1.90;;;;;;;38.39;17.37;101160.41;6258099;28;20045;-77
2022/07/20 12:31:15;;;;;;;3.40;2.20;;;;;;;38.63;16.83;101160.94;6259759;28;20064;-77
2022/07/20 12:34:17;;;;;;;6.72;2.10;;;;;;;38.67;17.10;101164.00;6261153;28;20057;-77
2022/07/20 12:37:19;;;;;;;5.22;2.20;;;;;;;38.70;16.54;101157.97;6257014;28;20537;-77
2022/07/20 12:40:37;;;;;;;2.92;1.67;;;;;;;38.60;17.24;101155.94;6252708;28;20045;-77
2022/07/20 12:43:40;;;;;;;1.48;1.33;;;;;;;38.74;17.30;101151.69;6262409;28;20048;-77
2022/07/20 12:46:41;;;;;;;2.63;2.22;;;;;;;39.01;16.49;101161.88;6233407;28;20480;-77
2022/07/20 12:49:44;;;;;;;3.78;1.60;;;;;;;39.14;16.60;101157.84;6247243;28;20057;-77
2022/07/20 12:52:46;;;;;;;2.35;1.63;;;;;;;39.04;16.09;101153.94;6256727;28;20512;-76
2022/07/20 12:55:47;;;;;;;2.92;1.38;;;;;;;39.03;17.12;101157.78;6249683;28;20053;-77
2022/07/20 12:58:48;;;;;;;3.03;1.88;;;;;;;38.85;16.90;101151.84;6239834;28;20061;-77
2022/07/20 13:01:49;;;;;;;4.45;2.60;;;;;;;38.64;18.67;101157.09;6251291;28;20041;-77
2022/07/20 13:04:52;;;;;;;2.83;2.50;;;;;;;38.46;19.86;101151.94;6250087;28;20041;-77
2022/07/20 13:07:53;;;;;;;4.60;2.85;;;;;;;38.56;19.21;101154.78;6248506;28;20141;-77
2022/07/20 13:10:55;;;;;;;4.53;2.67;;;;;;;38.67;18.67;101151.09;6243385;28;20049;-77
2022/07/20 13:13:57;;;;;;;6.10;2.58;;;;;;;38.73;19.24;101143.72;6244255;28;20053;-77
2022/07/20 13:16:58;;;;;;;4.03;2.55;;;;;;;38.80;18.48;101139.72;6252465;28;20060;-76
2022/07/20 13:20:01;;;;;;;2.92;2.25;;;;;;;38.62;18.76;101137.28;6241472;28;20049;-77
2022/07/20 13:23:03;;;;;;;2.80;2.10;;;;;;;38.93;18.56;101140.34;6235011;28;20137;-76
2022/07/20 13:26:04;;;;;;;4.22;2.25;;;;;;;39.15;18.01;101138.34;6234623;28;20060;-77
2022/07/20 13:29:06;;;;;;;2.78;2.20;;;;;;;38.84;18.72;101145.50;6239065;28;20440;-76
2022/07/20 13:32:07;;;;;;;4.88;2.15;;;;;;;38.95;19.08;101150.00;6256734;28;20041;-76
2022/07/20 13:35:10;;;;;;;3.75;2.13;;;;;;;38.77;19.14;101145.72;6256889;28;20117;-76
2022/07/20 13:38:12;;;;;;;3.65;2.47;;;;;;;38.69;18.96;101151.63;6257066;28;20096;-77
2022/07/20 13:41:14;;;;;;;2.70;2.25;;;;;;;38.64;19.04;101145.28;6250064;28;20689;-78
2022/07/20 13:44:15;;;;;;;6.95;2.50;;;;;;;38.62;19.84;101140.03;6261555;28;20045;-77
2022/07/20 13:47:16;;;;;;;4.07;2.20;;;;;;;38.68;18.97;101144.50;6248637;28;20524;-78
2022/07/20 13:50:19;;;;;;;7.85;2.22;;;;;;;38.90;19.34;101146.38;6238417;28;20046;-77
2022/07/20 13:53:21;;;;;;;4.75;2.30;;;;;;;39.00;18.55;101140.97;6238543;28;20054;-77
2022/07/20 13:56:23;;;;;;;3.97;1.80;;;;;;;39.31;18.75;101129.16;6240203;28;20425;-77
2022/07/20 13:59:24;;;;;;;6.93;2.00;;;;;;;39.58;18.12;101137.31;6253110;28;20068;-78
2022/07/20 14:02:25;;;;;;;3.00;1.95;;;;;;;39.58;17.87;101142.00;6262390;28;20104;-78
2022/07/20 14:05:28;;;;;;;2.50;2.00;;;;;;;38.96;18.56;101134.34;6262478;28;20056;-79
2022/07/20 14:08:29;;;;;;;2.80;2.33;;;;;;;38.21;19.40;101142.31;6263227;28;20046;-78
2022/07/20 14:11:31;;;;;;;2.17;1.90;;;;;;;37.81;19.25;101135.16;6262292;28;20053;-77